Minerva Astra — 9HDW7 — position and weather

sailwx.info

Track history (hours):
 
Tides and Currents Weather Stations Pressure Air Temp Water Temp Dewpoint Dewpoint Depression Visibility Wind Speed Wind Dir Waves Ship Positions

Minerva Astra

Last reported at 2018-Feb-23 04:06 UTC. Time now 2018-Feb-25 06:06 UTC.
Position N 28°10' W 094°30'.

Length 248 m; draft 8.5 m.

Type: Ship (hazmat cat A). MMSI: 256703000.

Date/timePositionNaut miles runAvg speedWind from/ knotsBaromVisibWave heightAir tempDewpointWater temp
2018-Feb-23 04:06N 28°10' W 094°30'1211.9
2018-Feb-23 03:05N 28°19' W 094°39'212.1
2018-Feb-23 02:55N 28°20' W 094°41'  
2018-Feb-20 22:32N 28°55' W 095°17'7 1.1
2018-Feb-20 16:37N 28°52' W 095°10'0 0.1
2018-Feb-20 16:25N 28°52' W 095°10'0 0.0
2018-Feb-20 12:49N 28°52' W 095°10'0 0.0
2018-Feb-20 07:40N 28°52' W 095°10'0 0.1
2018-Feb-20 07:25N 28°52' W 095°10'0 0.0
2018-Feb-20 06:40N 28°52' W 095°10'0 0.0
2018-Feb-20 06:16N 28°52' W 095°10'0 0.0
2018-Feb-20 05:55N 28°52' W 095°10'48 5.9
2018-Feb-19 21:45N 29°07' W 094°18'1811.2
2018-Feb-19 20:07N 28°56' W 094°01'1311.1
2018-Feb-19 18:56N 28°49' W 093°48'1410.9
2018-Feb-19 17:38N 28°41' W 093°35'210.5
2018-Feb-19 17:26N 28°40' W 093°33'2 0.2
2018-Feb-19 08:08N 28°40' W 093°30'0 0.0
2018-Feb-19 07:47N 28°40' W 093°30'0 0.0
2018-Feb-19 07:23N 28°40' W 093°30'0 0.0
2018-Feb-19 06:56N 28°40' W 093°30'0 0.0
2018-Feb-19 06:29N 28°40' W 093°30'0 0.0
2018-Feb-19 05:59N 28°40' W 093°30'0 0.0
2018-Feb-19 05:26N 28°40' W 093°30'0 0.0
2018-Feb-19 04:59N 28°40' W 093°30'0 0.0
2018-Feb-19 04:26N 28°40' W 093°30'0 0.0
2018-Feb-19 03:53N 28°40' W 093°30'0 0.0
2018-Feb-19 03:29N 28°40' W 093°30'0 0.0
2018-Feb-19 02:59N 28°40' W 093°30'0 0.0
2018-Feb-19 02:23N 28°40' W 093°30'0 0.0
2018-Feb-18 10:56N 28°40' W 093°30'0 0.0
2018-Feb-18 10:29N 28°40' W 093°30'0 0.0
2018-Feb-18 09:23N 28°40' W 093°30'0 0.0
2018-Feb-18 08:59N 28°40' W 093°30'0 0.0
2018-Feb-18 08:23N 28°40' W 093°30'0 0.0
2018-Feb-18 07:56N 28°40' W 093°30'0 0.0
2018-Feb-18 07:26N 28°40' W 093°30'0 0.0
2018-Feb-18 06:29N 28°40' W 093°30'0 0.0
2018-Feb-18 05:59N 28°40' W 093°30'0 0.0
2018-Feb-18 05:29N 28°40' W 093°30'0 0.0
2018-Feb-18 04:59N 28°40' W 093°30'0 0.0
2018-Feb-18 04:29N 28°40' W 093°30'0 0.0
2018-Feb-18 03:59N 28°40' W 093°30'0 0.0
2018-Feb-18 03:29N 28°40' W 093°30'0 0.0
2018-Feb-18 02:50N 28°40' W 093°30'0 0.0
2018-Feb-18 02:29N 28°40' W 093°30'0 0.0
2018-Feb-18 01:50N 28°40' W 093°30'0 0.0
2018-Feb-18 01:29N 28°40' W 093°30'0 0.1
2018-Feb-18 00:59N 28°40' W 093°30'0 0.0
2018-Feb-17 03:32N 28°40' W 093°30'0 0.0
2018-Feb-17 03:11N 28°40' W 093°30'8 2.9
2018-Feb-17 00:33N 28°48' W 093°28'112.1
2018-Feb-17 00:29N 28°49' W 093°28'611.0
2018-Feb-16 23:59N 28°54' W 093°28'611.9
2018-Feb-16 23:30N 28°58' W 093°33'611.8
2018-Feb-16 23:00N 29°03' W 093°37'911.1
2018-Feb-16 22:13N 29°11' W 093°40'311.8
2018-Feb-16 22:00N 29°14' W 093°40'611.7
2018-Feb-16 21:29N 29°20' W 093°41'611.6
2018-Feb-16 21:00N 29°25' W 093°41'4 8.5
2018-Feb-16 20:30N 29°30' W 093°41'611.9
2018-Feb-16 20:00N 29°34' W 093°46'611.4
2018-Feb-16 19:30N 29°38' W 093°49'611.8
2018-Feb-16 19:00N 29°44' W 093°52'5 9.4
2018-Feb-16 18:30N 29°47' W 093°57'3 5.6
2018-Feb-16 18:00N 29°49' W 093°57'0 0.0
2018-Feb-16 17:30N 29°49' W 093°57'0 0.0
2018-Feb-16 16:58N 29°49' W 093°57'0 0.0
2018-Feb-16 16:25N 29°49' W 093°57'0 0.0
2018-Feb-16 15:58N 29°49' W 093°57'0 0.0
2018-Feb-16 15:28N 29°49' W 093°57'0 0.0
2018-Feb-16 14:58N 29°49' W 093°57'0 0.0
2018-Feb-16 14:28N 29°49' W 093°57'0 0.0
2018-Feb-16 13:58N 29°49' W 093°57'0 0.0
2018-Feb-16 13:28N 29°49' W 093°57'0 0.0
2018-Feb-16 12:58N 29°49' W 093°57'0 0.0
2018-Feb-16 12:28N 29°49' W 093°57'0 0.0
2018-Feb-16 11:58N 29°49' W 093°57'0 0.0
2018-Feb-16 11:28N 29°49' W 093°57'0 0.0
2018-Feb-16 10:58N 29°49' W 093°57'0 0.0
2018-Feb-16 10:28N 29°49' W 093°57'0 0.0
2018-Feb-16 09:58N 29°49' W 093°57'0 0.0
2018-Feb-16 09:28N 29°49' W 093°57'0 0.0
2018-Feb-16 08:58N 29°49' W 093°57'0 0.0
2018-Feb-16 08:28N 29°49' W 093°57'0 0.0
2018-Feb-16 07:58N 29°49' W 093°57'0 0.0
2018-Feb-16 07:28N 29°49' W 093°57'0 0.0
2018-Feb-16 06:58N 29°49' W 093°57'0 0.0
2018-Feb-16 06:28N 29°49' W 093°57'0 0.0
2018-Feb-16 05:58N 29°49' W 093°57'0 0.0
2018-Feb-16 05:28N 29°49' W 093°57'0 0.0
2018-Feb-16 04:58N 29°49' W 093°57'0 0.0
2018-Feb-16 04:28N 29°49' W 093°57'0 0.0
2018-Feb-16 03:58N 29°49' W 093°57'0 0.0
2018-Feb-16 03:28N 29°49' W 093°57'0 0.0
2018-Feb-16 02:58N 29°49' W 093°57'0 0.0
2018-Feb-16 02:28N 29°49' W 093°57'0 0.0
2018-Feb-16 01:58N 29°49' W 093°57'0 0.0
2018-Feb-16 01:28N 29°49' W 093°57'0 0.0
2018-Feb-16 00:58N 29°49' W 093°57'0 0.0
2018-Feb-16 00:28N 29°49' W 093°57'0 0.0
2018-Feb-15 23:58N 29°49' W 093°57'0 0.0
2018-Feb-15 23:28N 29°49' W 093°57'0 0.0
2018-Feb-15 22:58N 29°49' W 093°57'0 0.0
2018-Feb-15 22:28N 29°49' W 093°57'0 0.0
2018-Feb-15 21:58N 29°49' W 093°57'0 0.0
2018-Feb-15 21:28N 29°49' W 093°57'0 0.0
2018-Feb-15 20:58N 29°49' W 093°57'0 0.0
2018-Feb-15 20:28N 29°49' W 093°57'0 0.0
2018-Feb-15 19:58N 29°49' W 093°57'0 0.0
2018-Feb-15 19:28N 29°49' W 093°57'0 0.0
2018-Feb-15 18:58N 29°49' W 093°57'0 0.0
2018-Feb-15 18:28N 29°49' W 093°57'0 0.0
2018-Feb-15 17:58N 29°49' W 093°57'0 0.0
2018-Feb-15 17:28N 29°49' W 093°57'0 0.0
2018-Feb-15 16:58N 29°49' W 093°57'0 0.0
2018-Feb-15 16:28N 29°49' W 093°57'0 0.0
2018-Feb-15 15:58N 29°49' W 093°57'0 0.0
2018-Feb-15 15:28N 29°49' W 093°57'0 0.0
2018-Feb-15 14:58N 29°49' W 093°57'0 0.0
2018-Feb-15 14:28N 29°49' W 093°57'0 0.0
2018-Feb-15 13:58N 29°49' W 093°57'0 0.0
2018-Feb-15 13:28N 29°49' W 093°57'0 0.0
2018-Feb-15 12:58N 29°49' W 093°57'0 0.0
2018-Feb-15 12:28N 29°49' W 093°57'0 0.0
2018-Feb-15 11:58N 29°49' W 093°57'0 0.0
2018-Feb-15 11:28N 29°49' W 093°57'0 0.0
2018-Feb-15 10:58N 29°49' W 093°57'0 0.0
2018-Feb-15 10:28N 29°49' W 093°57'0 0.0
2018-Feb-15 09:58N 29°49' W 093°57'0 0.0
2018-Feb-15 09:28N 29°49' W 093°57'0 0.0
2018-Feb-15 08:58N 29°49' W 093°57'0 0.0
2018-Feb-15 08:28N 29°49' W 093°57'0 0.0
2018-Feb-15 07:58N 29°49' W 093°57'0 0.0
2018-Feb-15 07:28N 29°49' W 093°57'0 0.0
2018-Feb-15 06:58N 29°49' W 093°57'0 0.0
2018-Feb-15 06:25N 29°49' W 093°57'0 0.0
2018-Feb-15 05:58N 29°49' W 093°57'0 0.0
2018-Feb-15 05:28N 29°49' W 093°57'0 0.0
2018-Feb-15 04:58N 29°49' W 093°57'0 0.0
2018-Feb-15 04:28N 29°49' W 093°57'0 0.0
2018-Feb-15 03:58N 29°49' W 093°57'0 0.0
2018-Feb-15 03:28N 29°49' W 093°57'0 0.0
2018-Feb-15 02:58N 29°49' W 093°57'0 0.0
2018-Feb-15 02:28N 29°49' W 093°57'0 0.0
2018-Feb-15 01:58N 29°49' W 093°57'0 0.0
2018-Feb-15 01:28N 29°49' W 093°57'0 0.0
2018-Feb-15 00:58N 29°49' W 093°57'0 0.0
2018-Feb-15 00:28N 29°49' W 093°57'0 0.0
2018-Feb-14 23:58N 29°49' W 093°57'0 0.0
2018-Feb-14 23:28N 29°49' W 093°57'0 0.0
2018-Feb-14 22:58N 29°49' W 093°57'0 0.0
2018-Feb-14 22:28N 29°49' W 093°57'0 0.0
2018-Feb-14 21:58N 29°49' W 093°57'0 0.0
2018-Feb-14 21:28N 29°49' W 093°57'0 0.0
2018-Feb-14 20:58N 29°49' W 093°57'0 0.0
2018-Feb-14 20:28N 29°49' W 093°57'0 0.0
2018-Feb-14 19:58N 29°49' W 093°57'0 0.0
2018-Feb-14 19:28N 29°49' W 093°57'0 0.0
2018-Feb-14 18:58N 29°49' W 093°57'0 0.0
2018-Feb-14 18:28N 29°49' W 093°57'0 0.0
2018-Feb-14 17:58N 29°49' W 093°57'0 0.0
2018-Feb-14 17:28N 29°49' W 093°57'0 0.0
2018-Feb-14 16:58N 29°49' W 093°57'0 0.0
2018-Feb-14 16:28N 29°49' W 093°57'0 0.0
2018-Feb-14 15:58N 29°49' W 093°57'0 0.0
2018-Feb-14 15:28N 29°49' W 093°57'0 0.0
2018-Feb-14 14:58N 29°49' W 093°57'0 0.0
2018-Feb-14 14:28N 29°49' W 093°57'0 0.0
2018-Feb-14 13:58N 29°49' W 093°57'0 0.0
2018-Feb-14 13:28N 29°49' W 093°57'0 0.0
2018-Feb-14 12:58N 29°49' W 093°57'0 0.0
2018-Feb-14 12:28N 29°49' W 093°57'0 0.0
2018-Feb-14 11:58N 29°49' W 093°57'0 0.0
2018-Feb-14 11:28N 29°49' W 093°57'0 0.0
2018-Feb-14 10:58N 29°49' W 093°57'0 0.0
2018-Feb-14 10:28N 29°49' W 093°57'0 0.0
2018-Feb-14 09:58N 29°49' W 093°57'0 0.0
2018-Feb-14 09:28N 29°49' W 093°57'0 0.0
2018-Feb-14 08:58N 29°49' W 093°57'0 0.0
2018-Feb-14 08:28N 29°49' W 093°57'0 0.0
2018-Feb-14 07:58N 29°49' W 093°57'0 0.0
2018-Feb-14 07:28N 29°49' W 093°57'0 0.0
2018-Feb-14 06:58N 29°49' W 093°57'0 0.0
2018-Feb-14 06:28N 29°49' W 093°57'0 0.1
2018-Feb-14 05:58N 29°49' W 093°57'0 0.6
2018-Feb-14 05:30N 29°49' W 093°58'3 6.1
2018-Feb-14 05:00N 29°46' W 093°56'4 8.2
2018-Feb-14 04:30N 29°44' W 093°52'5 8.9
2018-Feb-14 04:00N 29°40' W 093°50'510.4
2018-Feb-14 03:30N 29°35' W 093°47'611.5
2018-Feb-14 03:00N 29°31' W 093°43'510.1
2018-Feb-14 02:30N 29°27' W 093°40'3 5.4
2018-Feb-14 02:00N 29°24' W 093°39'1 1.4
2018-Feb-14 01:30N 29°24' W 093°38'0 0.2
2018-Feb-14 00:57N 29°24' W 093°38'0 0.0
2018-Feb-14 00:27N 29°24' W 093°38'0 0.0
2018-Feb-13 23:57N 29°24' W 093°38'0 0.1
2018-Feb-13 23:27N 29°24' W 093°38'0 0.0
2018-Feb-13 23:00N 29°24' W 093°38'0 0.0
2018-Feb-13 22:30N 29°24' W 093°38'0 0.0
2018-Feb-13 21:57N 29°24' W 093°38'0 0.0
2018-Feb-13 21:27N 29°24' W 093°38'0 0.0
2018-Feb-13 21:00N 29°24' W 093°38'0 0.0
2018-Feb-13 20:30N 29°24' W 093°38'0 0.0
2018-Feb-13 19:57N 29°24' W 093°38'0 0.0
2018-Feb-13 19:24N 29°24' W 093°38'0 0.0
2018-Feb-13 18:51N 29°24' W 093°38'0 0.1
2018-Feb-13 18:30N 29°24' W 093°38'0 0.0
2018-Feb-13 18:00N 29°24' W 093°38'0 0.0
2018-Feb-13 17:30N 29°24' W 093°38'0 0.0
2018-Feb-13 16:57N 29°24' W 093°38'0 0.0
2018-Feb-13 16:27N 29°24' W 093°38'0 0.0
2018-Feb-13 15:57N 29°24' W 093°38'0 0.0
2018-Feb-13 15:27N 29°24' W 093°38'0 0.0
2018-Feb-13 14:57N 29°24' W 093°38'0 0.1
2018-Feb-13 14:30N 29°24' W 093°38'0 0.1
2018-Feb-13 13:54N 29°24' W 093°38'0 0.0
2018-Feb-13 13:24N 29°24' W 093°38'0 0.0
2018-Feb-13 12:57N 29°24' W 093°38'0 0.1
2018-Feb-13 12:30N 29°24' W 093°38'0 0.0
2018-Feb-13 12:00N 29°24' W 093°38'0 0.0
2018-Feb-13 11:30N 29°24' W 093°38'0 0.0
2018-Feb-13 11:00N 29°24' W 093°38'0 0.0
2018-Feb-13 10:27N 29°24' W 093°38'0 0.0
2018-Feb-13 09:57N 29°24' W 093°38'0 0.0
2018-Feb-13 09:27N 29°24' W 093°38'0 0.0
2018-Feb-13 09:00N 29°24' W 093°38'0 0.0
2018-Feb-13 08:27N 29°24' W 093°38'0 0.0
2018-Feb-13 07:51N 29°24' W 093°38'0 0.0
2018-Feb-13 07:21N 29°24' W 093°38'0 0.0
2018-Feb-13 07:00N 29°24' W 093°38'0 0.0
2018-Feb-13 06:30N 29°24' W 093°38'0 0.0
2018-Feb-13 06:00N 29°24' W 093°38'0 0.0
2018-Feb-13 05:30N 29°24' W 093°38'0 0.0
2018-Feb-13 04:57N 29°24' W 093°38'0 0.1
2018-Feb-13 04:27N 29°24' W 093°38'  
Track history (hours):
 
Tides and Currents Weather Stations Pressure Air Temp Water Temp Dewpoint Dewpoint Depression Visibility Wind Speed Wind Dir Waves Ship Positions

Minerva Astra

Last reported at 2018-Feb-23 04:06 UTC. Time now 2018-Feb-25 06:06 UTC.
Position N 28°10' W 094°30'.

Length 248 m; draft 8.5 m.

Type: Ship (hazmat cat A). MMSI: 256703000.

Date/timePositionNaut miles runAvg speedWind from/ knotsBaromVisibWave heightAir tempDewpointWater temp
2018-Feb-23 04:06N 28°10' W 094°30'1211.9
2018-Feb-23 03:05N 28°19' W 094°39'212.1
2018-Feb-23 02:55N 28°20' W 094°41'  
2018-Feb-20 22:32N 28°55' W 095°17'7 1.1
2018-Feb-20 16:37N 28°52' W 095°10'0 0.1
2018-Feb-20 16:25N 28°52' W 095°10'0 0.0
2018-Feb-20 12:49N 28°52' W 095°10'0 0.0
2018-Feb-20 07:40N 28°52' W 095°10'0 0.1
2018-Feb-20 07:25N 28°52' W 095°10'0 0.0
2018-Feb-20 06:40N 28°52' W 095°10'0 0.0
2018-Feb-20 06:16N 28°52' W 095°10'0 0.0
2018-Feb-20 05:55N 28°52' W 095°10'48 5.9
2018-Feb-19 21:45N 29°07' W 094°18'1811.2
2018-Feb-19 20:07N 28°56' W 094°01'1311.1
2018-Feb-19 18:56N 28°49' W 093°48'1410.9
2018-Feb-19 17:38N 28°41' W 093°35'210.5
2018-Feb-19 17:26N 28°40' W 093°33'2 0.2
2018-Feb-19 08:08N 28°40' W 093°30'0 0.0
2018-Feb-19 07:47N 28°40' W 093°30'0 0.0
2018-Feb-19 07:23N 28°40' W 093°30'0 0.0
2018-Feb-19 06:56N 28°40' W 093°30'0 0.0
2018-Feb-19 06:29N 28°40' W 093°30'0 0.0
2018-Feb-19 05:59N 28°40' W 093°30'0 0.0
2018-Feb-19 05:26N 28°40' W 093°30'0 0.0
2018-Feb-19 04:59N 28°40' W 093°30'0 0.0
2018-Feb-19 04:26N 28°40' W 093°30'0 0.0
2018-Feb-19 03:53N 28°40' W 093°30'0 0.0
2018-Feb-19 03:29N 28°40' W 093°30'0 0.0
2018-Feb-19 02:59N 28°40' W 093°30'0 0.0
2018-Feb-19 02:23N 28°40' W 093°30'0 0.0
2018-Feb-18 10:56N 28°40' W 093°30'0 0.0
2018-Feb-18 10:29N 28°40' W 093°30'0 0.0
2018-Feb-18 09:23N 28°40' W 093°30'0 0.0
2018-Feb-18 08:59N 28°40' W 093°30'0 0.0
2018-Feb-18 08:23N 28°40' W 093°30'0 0.0
2018-Feb-18 07:56N 28°40' W 093°30'0 0.0
2018-Feb-18 07:26N 28°40' W 093°30'0 0.0
2018-Feb-18 06:29N 28°40' W 093°30'0 0.0
2018-Feb-18 05:59N 28°40' W 093°30'0 0.0
2018-Feb-18 05:29N 28°40' W 093°30'0 0.0
2018-Feb-18 04:59N 28°40' W 093°30'0 0.0
2018-Feb-18 04:29N 28°40' W 093°30'0 0.0
2018-Feb-18 03:59N 28°40' W 093°30'0 0.0
2018-Feb-18 03:29N 28°40' W 093°30'0 0.0
2018-Feb-18 02:50N 28°40' W 093°30'0 0.0
2018-Feb-18 02:29N 28°40' W 093°30'0 0.0
2018-Feb-18 01:50N 28°40' W 093°30'0 0.0
2018-Feb-18 01:29N 28°40' W 093°30'0 0.1
2018-Feb-18 00:59N 28°40' W 093°30'0 0.0
2018-Feb-17 03:32N 28°40' W 093°30'0 0.0
2018-Feb-17 03:11N 28°40' W 093°30'8 2.9
2018-Feb-17 00:33N 28°48' W 093°28'112.1
2018-Feb-17 00:29N 28°49' W 093°28'611.0
2018-Feb-16 23:59N 28°54' W 093°28'611.9
2018-Feb-16 23:30N 28°58' W 093°33'611.8
2018-Feb-16 23:00N 29°03' W 093°37'911.1
2018-Feb-16 22:13N 29°11' W 093°40'311.8
2018-Feb-16 22:00N 29°14' W 093°40'611.7
2018-Feb-16 21:29N 29°20' W 093°41'611.6
2018-Feb-16 21:00N 29°25' W 093°41'4 8.5
2018-Feb-16 20:30N 29°30' W 093°41'611.9
2018-Feb-16 20:00N 29°34' W 093°46'611.4
2018-Feb-16 19:30N 29°38' W 093°49'611.8
2018-Feb-16 19:00N 29°44' W 093°52'5 9.4
2018-Feb-16 18:30N 29°47' W 093°57'3 5.6
2018-Feb-16 18:00N 29°49' W 093°57'0 0.0
2018-Feb-16 17:30N 29°49' W 093°57'0 0.0
2018-Feb-16 16:58N 29°49' W 093°57'0 0.0
2018-Feb-16 16:25N 29°49' W 093°57'0 0.0
2018-Feb-16 15:58N 29°49' W 093°57'0 0.0
2018-Feb-16 15:28N 29°49' W 093°57'0 0.0
2018-Feb-16 14:58N 29°49' W 093°57'0 0.0
2018-Feb-16 14:28N 29°49' W 093°57'0 0.0
2018-Feb-16 13:58N 29°49' W 093°57'0 0.0
2018-Feb-16 13:28N 29°49' W 093°57'0 0.0
2018-Feb-16 12:58N 29°49' W 093°57'0 0.0
2018-Feb-16 12:28N 29°49' W 093°57'0 0.0
2018-Feb-16 11:58N 29°49' W 093°57'0 0.0
2018-Feb-16 11:28N 29°49' W 093°57'0 0.0
2018-Feb-16 10:58N 29°49' W 093°57'0 0.0
2018-Feb-16 10:28N 29°49' W 093°57'0 0.0
2018-Feb-16 09:58N 29°49' W 093°57'0 0.0
2018-Feb-16 09:28N 29°49' W 093°57'0 0.0
2018-Feb-16 08:58N 29°49' W 093°57'0 0.0
2018-Feb-16 08:28N 29°49' W 093°57'0 0.0
2018-Feb-16 07:58N 29°49' W 093°57'0 0.0
2018-Feb-16 07:28N 29°49' W 093°57'0 0.0
2018-Feb-16 06:58N 29°49' W 093°57'0 0.0
2018-Feb-16 06:28N 29°49' W 093°57'0 0.0
2018-Feb-16 05:58N 29°49' W 093°57'0 0.0
2018-Feb-16 05:28N 29°49' W 093°57'0 0.0
2018-Feb-16 04:58N 29°49' W 093°57'0 0.0
2018-Feb-16 04:28N 29°49' W 093°57'0 0.0
2018-Feb-16 03:58N 29°49' W 093°57'0 0.0
2018-Feb-16 03:28N 29°49' W 093°57'0 0.0
2018-Feb-16 02:58N 29°49' W 093°57'0 0.0
2018-Feb-16 02:28N 29°49' W 093°57'0 0.0
2018-Feb-16 01:58N 29°49' W 093°57'0 0.0
2018-Feb-16 01:28N 29°49' W 093°57'0 0.0
2018-Feb-16 00:58N 29°49' W 093°57'0 0.0
2018-Feb-16 00:28N 29°49' W 093°57'0 0.0
2018-Feb-15 23:58N 29°49' W 093°57'0 0.0
2018-Feb-15 23:28N 29°49' W 093°57'0 0.0
2018-Feb-15 22:58N 29°49' W 093°57'0 0.0
2018-Feb-15 22:28N 29°49' W 093°57'0 0.0
2018-Feb-15 21:58N 29°49' W 093°57'0 0.0
2018-Feb-15 21:28N 29°49' W 093°57'0 0.0
2018-Feb-15 20:58N 29°49' W 093°57'0 0.0
2018-Feb-15 20:28N 29°49' W 093°57'0 0.0
2018-Feb-15 19:58N 29°49' W 093°57'0 0.0
2018-Feb-15 19:28N 29°49' W 093°57'0 0.0
2018-Feb-15 18:58N 29°49' W 093°57'0 0.0
2018-Feb-15 18:28N 29°49' W 093°57'0 0.0
2018-Feb-15 17:58N 29°49' W 093°57'0 0.0
2018-Feb-15 17:28N 29°49' W 093°57'0 0.0
2018-Feb-15 16:58N 29°49' W 093°57'0 0.0
2018-Feb-15 16:28N 29°49' W 093°57'0 0.0
2018-Feb-15 15:58N 29°49' W 093°57'0 0.0
2018-Feb-15 15:28N 29°49' W 093°57'0 0.0
2018-Feb-15 14:58N 29°49' W 093°57'0 0.0
2018-Feb-15 14:28N 29°49' W 093°57'0 0.0
2018-Feb-15 13:58N 29°49' W 093°57'0 0.0
2018-Feb-15 13:28N 29°49' W 093°57'0 0.0
2018-Feb-15 12:58N 29°49' W 093°57'0 0.0
2018-Feb-15 12:28N 29°49' W 093°57'0 0.0
2018-Feb-15 11:58N 29°49' W 093°57'0 0.0
2018-Feb-15 11:28N 29°49' W 093°57'0 0.0
2018-Feb-15 10:58N 29°49' W 093°57'0 0.0
2018-Feb-15 10:28N 29°49' W 093°57'0 0.0
2018-Feb-15 09:58N 29°49' W 093°57'0 0.0
2018-Feb-15 09:28N 29°49' W 093°57'0 0.0
2018-Feb-15 08:58N 29°49' W 093°57'0 0.0
2018-Feb-15 08:28N 29°49' W 093°57'0 0.0
2018-Feb-15 07:58N 29°49' W 093°57'0 0.0
2018-Feb-15 07:28N 29°49' W 093°57'0 0.0
2018-Feb-15 06:58N 29°49' W 093°57'0 0.0
2018-Feb-15 06:25N 29°49' W 093°57'0 0.0
2018-Feb-15 05:58N 29°49' W 093°57'0 0.0
2018-Feb-15 05:28N 29°49' W 093°57'0 0.0
2018-Feb-15 04:58N 29°49' W 093°57'0 0.0
2018-Feb-15 04:28N 29°49' W 093°57'0 0.0
2018-Feb-15 03:58N 29°49' W 093°57'0 0.0
2018-Feb-15 03:28N 29°49' W 093°57'0 0.0
2018-Feb-15 02:58N 29°49' W 093°57'0 0.0
2018-Feb-15 02:28N 29°49' W 093°57'0 0.0
2018-Feb-15 01:58N 29°49' W 093°57'0 0.0
2018-Feb-15 01:28N 29°49' W 093°57'0 0.0
2018-Feb-15 00:58N 29°49' W 093°57'0 0.0
2018-Feb-15 00:28N 29°49' W 093°57'0 0.0
2018-Feb-14 23:58N 29°49' W 093°57'0 0.0
2018-Feb-14 23:28N 29°49' W 093°57'0 0.0
2018-Feb-14 22:58N 29°49' W 093°57'0 0.0
2018-Feb-14 22:28N 29°49' W 093°57'0 0.0
2018-Feb-14 21:58N 29°49' W 093°57'0 0.0
2018-Feb-14 21:28N 29°49' W 093°57'0 0.0
2018-Feb-14 20:58N 29°49' W 093°57'0 0.0
2018-Feb-14 20:28N 29°49' W 093°57'0 0.0
2018-Feb-14 19:58N 29°49' W 093°57'0 0.0
2018-Feb-14 19:28N 29°49' W 093°57'0 0.0
2018-Feb-14 18:58N 29°49' W 093°57'0 0.0
2018-Feb-14 18:28N 29°49' W 093°57'0 0.0
2018-Feb-14 17:58N 29°49' W 093°57'0 0.0
2018-Feb-14 17:28N 29°49' W 093°57'0 0.0
2018-Feb-14 16:58N 29°49' W 093°57'0 0.0
2018-Feb-14 16:28N 29°49' W 093°57'0 0.0
2018-Feb-14 15:58N 29°49' W 093°57'0 0.0
2018-Feb-14 15:28N 29°49' W 093°57'0 0.0
2018-Feb-14 14:58N 29°49' W 093°57'0 0.0
2018-Feb-14 14:28N 29°49' W 093°57'0 0.0
2018-Feb-14 13:58N 29°49' W 093°57'0 0.0
2018-Feb-14 13:28N 29°49' W 093°57'0 0.0
2018-Feb-14 12:58N 29°49' W 093°57'0 0.0
2018-Feb-14 12:28N 29°49' W 093°57'0 0.0
2018-Feb-14 11:58N 29°49' W 093°57'0 0.0
2018-Feb-14 11:28N 29°49' W 093°57'0 0.0
2018-Feb-14 10:58N 29°49' W 093°57'0 0.0
2018-Feb-14 10:28N 29°49' W 093°57'0 0.0
2018-Feb-14 09:58N 29°49' W 093°57'0 0.0
2018-Feb-14 09:28N 29°49' W 093°57'0 0.0
2018-Feb-14 08:58N 29°49' W 093°57'0 0.0
2018-Feb-14 08:28N 29°49' W 093°57'0 0.0
2018-Feb-14 07:58N 29°49' W 093°57'0 0.0
2018-Feb-14 07:28N 29°49' W 093°57'0 0.0
2018-Feb-14 06:58N 29°49' W 093°57'0 0.0
2018-Feb-14 06:28N 29°49' W 093°57'0 0.1
2018-Feb-14 05:58N 29°49' W 093°57'0 0.6
2018-Feb-14 05:30N 29°49' W 093°58'3 6.1
2018-Feb-14 05:00N 29°46' W 093°56'4 8.2
2018-Feb-14 04:30N 29°44' W 093°52'5 8.9
2018-Feb-14 04:00N 29°40' W 093°50'510.4
2018-Feb-14 03:30N 29°35' W 093°47'611.5
2018-Feb-14 03:00N 29°31' W 093°43'510.1
2018-Feb-14 02:30N 29°27' W 093°40'3 5.4
2018-Feb-14 02:00N 29°24' W 093°39'1 1.4
2018-Feb-14 01:30N 29°24' W 093°38'0 0.2
2018-Feb-14 00:57N 29°24' W 093°38'0 0.0
2018-Feb-14 00:27N 29°24' W 093°38'0 0.0
2018-Feb-13 23:57N 29°24' W 093°38'0 0.1
2018-Feb-13 23:27N 29°24' W 093°38'0 0.0
2018-Feb-13 23:00N 29°24' W 093°38'0 0.0
2018-Feb-13 22:30N 29°24' W 093°38'0 0.0
2018-Feb-13 21:57N 29°24' W 093°38'0 0.0
2018-Feb-13 21:27N 29°24' W 093°38'0 0.0
2018-Feb-13 21:00N 29°24' W 093°38'0 0.0
2018-Feb-13 20:30N 29°24' W 093°38'0 0.0
2018-Feb-13 19:57N 29°24' W 093°38'0 0.0
2018-Feb-13 19:24N 29°24' W 093°38'0 0.0
2018-Feb-13 18:51N 29°24' W 093°38'0 0.1
2018-Feb-13 18:30N 29°24' W 093°38'0 0.0
2018-Feb-13 18:00N 29°24' W 093°38'0 0.0
2018-Feb-13 17:30N 29°24' W 093°38'0 0.0
2018-Feb-13 16:57N 29°24' W 093°38'0 0.0
2018-Feb-13 16:27N 29°24' W 093°38'0 0.0
2018-Feb-13 15:57N 29°24' W 093°38'0 0.0
2018-Feb-13 15:27N 29°24' W 093°38'0 0.0
2018-Feb-13 14:57N 29°24' W 093°38'0 0.1
2018-Feb-13 14:30N 29°24' W 093°38'0 0.1
2018-Feb-13 13:54N 29°24' W 093°38'0 0.0
2018-Feb-13 13:24N 29°24' W 093°38'0 0.0
2018-Feb-13 12:57N 29°24' W 093°38'0 0.1
2018-Feb-13 12:30N 29°24' W 093°38'0 0.0
2018-Feb-13 12:00N 29°24' W 093°38'0 0.0
2018-Feb-13 11:30N 29°24' W 093°38'0 0.0
2018-Feb-13 11:00N 29°24' W 093°38'0 0.0
2018-Feb-13 10:27N 29°24' W 093°38'0 0.0
2018-Feb-13 09:57N 29°24' W 093°38'0 0.0
2018-Feb-13 09:27N 29°24' W 093°38'0 0.0
2018-Feb-13 09:00N 29°24' W 093°38'0 0.0
2018-Feb-13 08:27N 29°24' W 093°38'0 0.0
2018-Feb-13 07:51N 29°24' W 093°38'0 0.0
2018-Feb-13 07:21N 29°24' W 093°38'0 0.0
2018-Feb-13 07:00N 29°24' W 093°38'0 0.0
2018-Feb-13 06:30N 29°24' W 093°38'0 0.0
2018-Feb-13 06:00N 29°24' W 093°38'0 0.0
2018-Feb-13 05:30N 29°24' W 093°38'0 0.0
2018-Feb-13 04:57N 29°24' W 093°38'0 0.1
2018-Feb-13 04:27N 29°24' W 093°38'  

Dump ship's entire track history